Time;durP1;ratioP1;P1;durP2;ratioP2;P2;SDS_P1;SDS_P2;PMS_P1;PMS_P2;Temp;Humidity;BMP_temperature;BMP_pressure;BME280_temperature;BME280_humidity;BME280_pressure;Samples;Min_cycle;Max_cycle;Signal;HPM_P1;HPM_P2
2024/02/11 00:00:14;;;;;;;0.50;0.50;;;;;;;8.36;100.00;90334.59;2113942;28;20015;-80
2024/02/11 00:01:15;;;;;;;0.50;0.50;;;;;;;8.04;100.00;90333.78;2105173;28;20063;-79
2024/02/11 00:02:16;;;;;;;0.68;0.40;;;;;;;8.37;100.00;90344.03;2110868;27;20152;-79
2024/02/11 00:03:27;;;;;;;0.55;0.55;;;;;;;8.26;100.00;90333.28;2127183;27;20548;-78
2024/02/11 00:04:28;;;;;;;0.55;0.40;;;;;;;7.96;100.00;90344.09;2118036;27;20698;-79
2024/02/11 00:05:30;;;;;;;0.40;0.40;;;;;;;8.13;100.00;90333.63;2106224;28;20030;-79
2024/02/11 00:06:31;;;;;;;0.30;0.30;;;;;;;8.20;100.00;90337.78;2110798;28;20023;-80
2024/02/11 00:07:32;;;;;;;1.15;0.32;;;;;;;8.22;100.00;90346.06;2120089;27;20034;-78
2024/02/11 00:08:33;;;;;;;0.30;0.30;;;;;;;8.04;100.00;90339.81;2128380;27;20026;-79
2024/02/11 00:09:34;;;;;;;0.30;0.30;;;;;;;8.16;100.00;90337.28;2113528;27;20116;-79
2024/02/11 00:10:35;;;;;;;0.95;0.40;;;;;;;8.06;100.00;90342.75;2105449;28;20284;-79
2024/02/11 00:11:36;;;;;;;0.40;0.40;;;;;;;8.07;100.00;90338.16;2109034;28;20027;-79
2024/02/11 00:12:41;;;;;;;0.40;0.40;;;;;;;7.91;100.00;90341.38;2112881;27;20047;-79
2024/02/11 00:13:42;;;;;;;0.40;0.40;;;;;;;7.75;100.00;90338.03;2121934;27;20113;-80
2024/02/11 00:14:44;;;;;;;0.40;0.40;;;;;;;7.84;100.00;90345.16;2098362;28;20024;-80
2024/02/11 00:15:46;;;;;;;0.65;0.20;;;;;;;7.78;100.00;90339.78;2107967;27;20135;-78
2024/02/11 00:16:47;;;;;;;0.20;0.20;;;;;;;7.82;100.00;90345.63;2116468;27;20511;-78
2024/02/11 00:17:48;;;;;;;0.20;0.20;;;;;;;7.75;100.00;90350.59;2107024;28;20031;-80
2024/02/11 00:18:49;;;;;;;0.20;0.20;;;;;;;7.70;100.00;90354.66;2103593;28;20050;-79
2024/02/11 00:19:50;;;;;;;0.20;0.20;;;;;;;7.74;100.00;90343.84;2112109;27;20067;-79
2024/02/11 00:20:51;;;;;;;0.68;0.20;;;;;;;7.72;100.00;90343.53;2114559;27;20015;-80
2024/02/11 00:21:52;;;;;;;0.20;0.20;;;;;;;7.54;100.00;90353.25;2105986;27;20595;-79
2024/02/11 00:22:53;;;;;;;0.20;0.20;;;;;;;7.51;100.00;90350.81;2120303;27;20165;-78
2024/02/11 00:23:54;;;;;;;0.20;0.20;;;;;;;7.62;100.00;90350.94;2109349;28;20065;-79
2024/02/11 00:24:55;;;;;;;0.20;0.20;;;;;;;7.31;100.00;90352.22;2097849;28;20158;-79
2024/02/11 00:25:56;;;;;;;0.20;0.20;;;;;;;7.49;100.00;90353.91;2105405;28;20035;-79
2024/02/11 00:26:57;;;;;;;0.20;0.20;;;;;;;7.50;100.00;90355.34;2105778;27;20429;-78
2024/02/11 00:27:59;;;;;;;0.20;0.20;;;;;;;7.61;100.00;90352.13;2120054;27;20046;-79
2024/02/11 00:29:00;;;;;;;0.28;0.28;;;;;;;7.37;100.00;90357.59;2111875;28;20062;-78
2024/02/11 00:30:01;;;;;;;0.20;0.20;;;;;;;7.37;100.00;90360.25;2116389;27;20031;-79
2024/02/11 00:31:03;;;;;;;0.10;0.10;;;;;;;7.71;100.00;90358.03;2129149;27;20716;-78
2024/02/11 00:32:04;;;;;;;0.20;0.20;;;;;;;7.60;100.00;90347.28;2126981;27;20448;-79
2024/02/11 00:33:05;;;;;;;0.10;0.10;;;;;;;7.54;100.00;90371.13;2119892;27;20057;-78
2024/02/11 00:34:06;;;;;;;0.20;0.20;;;;;;;7.48;100.00;90355.09;2116680;27;20019;-78
2024/02/11 00:35:08;;;;;;;0.22;0.22;;;;;;;7.52;100.00;90354.91;2127069;27;20106;-78
2024/02/11 00:36:09;;;;;;;0.30;0.20;;;;;;;7.42;100.00;90364.94;2113014;27;20035;-78
2024/02/11 00:37:12;;;;;;;0.20;0.20;;;;;;;7.72;100.00;90354.19;2111410;27;20015;-78
2024/02/11 00:38:15;;;;;;;0.10;0.10;;;;;;;7.25;100.00;90353.34;2114526;27;20102;-79
2024/02/11 00:39:16;;;;;;;0.20;0.20;;;;;;;7.29;100.00;90357.28;2098029;28;20492;-79
2024/02/11 00:40:19;;;;;;;0.20;0.20;;;;;;;7.24;100.00;90351.88;2104546;28;20089;-79
2024/02/11 00:41:20;;;;;;;0.17;0.17;;;;;;;7.24;100.00;90357.19;2106452;28;20143;-78
2024/02/11 00:42:21;;;;;;;0.20;0.20;;;;;;;7.27;100.00;90356.25;2122697;27;20046;-77
2024/02/11 00:43:22;;;;;;;0.17;0.17;;;;;;;7.51;100.00;90354.19;2125907;27;20026;-79
2024/02/11 00:44:23;;;;;;;0.20;0.20;;;;;;;7.43;100.00;90363.00;2115623;27;20102;-77
2024/02/11 00:45:24;;;;;;;0.30;0.30;;;;;;;7.43;100.00;90363.00;2129938;27;20018;-79
2024/02/11 00:46:25;;;;;;;0.40;0.20;;;;;;;7.39;100.00;90368.50;2119684;27;20019;-77
2024/02/11 00:47:28;;;;;;;0.10;0.10;;;;;;;7.04;100.00;90369.22;2122700;27;20033;-79
2024/02/11 00:48:29;;;;;;;0.13;0.13;;;;;;;7.14;100.00;90364.53;2120566;27;20412;-79
2024/02/11 00:49:31;;;;;;;0.20;0.20;;;;;;;7.30;100.00;90366.69;2108118;28;20186;-80
2024/02/11 00:50:33;;;;;;;0.20;0.20;;;;;;;7.29;100.00;90364.53;2097817;27;20412;-78
2024/02/11 00:51:34;;;;;;;0.20;0.20;;;;;;;7.18;100.00;90372.31;2106353;28;20188;-79
2024/02/11 00:52:35;;;;;;;0.15;0.15;;;;;;;7.14;100.00;90369.13;2119355;27;20639;-80
2024/02/11 00:53:36;;;;;;;0.20;0.20;;;;;;;7.27;100.00;90372.19;2124422;27;20018;-78
2024/02/11 00:54:37;;;;;;;0.20;0.20;;;;;;;7.17;100.00;90373.50;2121233;27;20439;-79
2024/02/11 00:55:38;;;;;;;0.20;0.20;;;;;;;7.10;100.00;90376.53;2115432;27;20101;-79
2024/02/11 00:56:41;;;;;;;0.20;0.20;;;;;;;7.14;100.00;90377.81;2115698;27;20115;-79
2024/02/11 00:57:42;;;;;;;0.20;0.20;;;;;;;7.15;100.00;90376.63;2115744;27;20023;-77
2024/02/11 00:58:43;;;;;;;0.35;0.20;;;;;;;7.03;100.00;90375.72;2116232;27;20038;-81
2024/02/11 00:59:43;;;;;;;0.10;0.10;;;;;;;7.17;100.00;90379.56;2121064;27;20031;-79
2024/02/11 01:00:45;;;;;;;0.28;0.20;;;;;;;6.95;100.00;90376.56;2127490;27;20497;-77
2024/02/11 01:01:46;;;;;;;0.10;0.10;;;;;;;6.89;100.00;90375.72;2124285;27;20028;-80
2024/02/11 01:02:47;;;;;;;0.20;0.20;;;;;;;7.02;100.00;90386.78;2122452;27;20578;-79
2024/02/11 01:03:49;;;;;;;0.35;0.20;;;;;;;6.91;100.00;90382.06;2128929;27;20074;-78
2024/02/11 01:04:51;;;;;;;0.17;0.17;;;;;;;7.02;100.00;90386.78;2129901;27;20027;-78
2024/02/11 01:05:52;;;;;;;0.10;0.10;;;;;;;6.84;100.00;90394.97;2124904;27;20027;-78
2024/02/11 01:06:57;;;;;;;0.17;0.17;;;;;;;6.80;100.00;90398.56;2096613;28;20021;-79
2024/02/11 01:08:01;;;;;;;0.20;0.20;;;;;;;6.84;100.00;90395.69;2108715;27;20047;-78
2024/02/11 01:09:03;;;;;;;0.13;0.13;;;;;;;6.81;100.00;90393.97;2119347;27;20019;-78
2024/02/11 01:10:10;;;;;;;0.20;0.20;;;;;;;6.81;100.00;90401.94;2121033;27;20023;-80
2024/02/11 01:11:20;;;;;;;0.20;0.20;;;;;;;6.80;100.00;90395.91;2113481;27;20102;-79
2024/02/11 01:12:23;;;;;;;;;;;;;;;6.87;100.00;90400.09;2103974;27;20032;-79
2024/02/11 01:13:25;;;;;;;0.28;0.28;;;;;;;6.86;100.00;90409.25;2117423;27;20040;-79
2024/02/11 01:14:26;;;;;;;3.72;0.20;;;;;;;6.74;100.00;90402.28;2122871;27;20367;-77
2024/02/11 01:15:27;;;;;;;0.10;0.10;;;;;;;6.68;100.00;90409.44;2124389;27;20101;-80
2024/02/11 01:16:28;;;;;;;0.20;0.20;;;;;;;6.63;100.00;90396.78;2117194;27;20030;-78
2024/02/11 01:17:29;;;;;;;0.10;0.10;;;;;;;6.74;100.00;90404.94;2114082;28;20028;-78
2024/02/11 01:18:30;;;;;;;0.10;0.10;;;;;;;6.66;100.00;90404.56;2104278;28;20024;-79
2024/02/11 01:19:31;;;;;;;0.10;0.10;;;;;;;6.62;100.00;90411.97;2111455;28;20068;-78
2024/02/11 01:20:32;;;;;;;0.10;0.10;;;;;;;6.62;100.00;90416.56;2122289;27;20096;-79
2024/02/11 01:21:33;;;;;;;0.10;0.10;;;;;;;6.46;100.00;90410.50;2125331;27;20050;-79
2024/02/11 01:22:34;;;;;;;0.10;0.10;;;;;;;6.42;100.00;90417.91;2117188;27;20026;-79
2024/02/11 01:23:35;;;;;;;0.10;0.10;;;;;;;6.51;100.00;90412.53;2119491;27;20411;-78
2024/02/11 01:24:35;;;;;;;0.10;0.10;;;;;;;6.53;100.00;90422.69;2117508;27;20478;-79
2024/02/11 01:25:36;;;;;;;0.10;0.10;;;;;;;6.43;100.00;90422.03;2116234;27;20027;-79
2024/02/11 01:26:38;;;;;;;0.10;0.10;;;;;;;6.25;100.00;90430.13;2107437;27;20158;-78
2024/02/11 01:27:39;;;;;;;1.38;0.20;;;;;;;6.31;100.00;90418.44;2119779;27;20133;-78
2024/02/11 01:28:40;;;;;;;0.10;0.10;;;;;;;6.34;100.00;90426.69;2124058;27;20023;-79
2024/02/11 01:29:41;;;;;;;1.42;0.20;;;;;;;6.54;100.00;90416.19;2126841;27;20087;-78
2024/02/11 01:30:45;;;;;;;0.10;0.10;;;;;;;6.46;100.00;90428.38;2122518;27;20015;-79
2024/02/11 01:31:49;;;;;;;0.10;0.10;;;;;;;6.28;100.00;90424.66;2128490;27;20528;-79
2024/02/11 01:32:50;;;;;;;0.10;0.10;;;;;;;5.98;100.00;90433.72;2112780;28;20533;-79
2024/02/11 01:33:51;;;;;;;0.20;0.20;;;;;;;6.06;100.00;90426.91;2110543;27;20023;-80
2024/02/11 01:34:52;;;;;;;0.10;0.10;;;;;;;6.04;100.00;90429.97;2128637;27;20460;-78
2024/02/11 01:35:53;;;;;;;0.10;0.10;;;;;;;6.19;100.00;90435.34;2128649;27;20664;-80
2024/02/11 01:36:54;;;;;;;0.10;0.10;;;;;;;6.21;100.00;90434.88;2103389;28;20084;-79
2024/02/11 01:37:56;;;;;;;0.10;0.10;;;;;;;6.03;100.00;90428.53;2105075;27;20077;-80
2024/02/11 01:38:56;;;;;;;0.10;0.10;;;;;;;5.91;100.00;90441.97;2127673;27;20021;-79
2024/02/11 01:39:58;;;;;;;0.10;0.10;;;;;;;5.96;100.00;90434.16;2122694;27;20054;-76
2024/02/11 01:41:00;;;;;;;0.10;0.10;;;;;;;5.92;100.00;90444.19;2121491;27;20065;-79
2024/02/11 01:42:02;;;;;;;0.10;0.10;;;;;;;5.91;100.00;90445.34;2122516;27;20069;-79
2024/02/11 01:43:10;;;;;;;0.10;0.10;;;;;;;5.92;100.00;90440.81;2119449;27;20094;-79
2024/02/11 01:44:15;;;;;;;0.10;0.10;;;;;;;5.86;100.00;90445.97;2115307;27;20034;-79
2024/02/11 01:45:17;;;;;;;0.10;0.10;;;;;;;5.92;100.00;90441.53;2108184;28;20465;-79
2024/02/11 01:46:20;;;;;;;0.10;0.10;;;;;;;5.85;100.00;90446.44;2116936;27;20407;-78
2024/02/11 01:47:21;;;;;;;0.13;0.10;;;;;;;5.90;100.00;90445.81;2125206;27;20049;-79
2024/02/11 01:48:22;;;;;;;0.15;0.15;;;;;;;5.85;100.00;90451.75;2122891;27;20037;-80
2024/02/11 01:49:24;;;;;;;0.10;0.10;;;;;;;5.82;100.00;90448.81;2110517;27;20471;-78
2024/02/11 01:50:31;;;;;;;0.10;0.10;;;;;;;5.62;100.00;90447.88;2125492;27;20022;-79
2024/02/11 01:51:35;;;;;;;0.20;0.20;;;;;;;5.68;100.00;90452.13;2107769;28;20109;-78
2024/02/11 01:52:36;;;;;;;0.10;0.10;;;;;;;5.62;100.00;90453.94;2105593;28;20023;-80
2024/02/11 01:53:39;;;;;;;0.10;0.10;;;;;;;5.82;100.00;90454.09;2110295;28;20046;-80
2024/02/11 01:54:41;;;;;;;1.75;0.20;;;;;;;5.94;100.00;90454.38;2123088;27;20067;-80
2024/02/11 01:55:42;;;;;;;0.10;0.10;;;;;;;5.57;100.00;90459.81;2124274;27;20102;-78
2024/02/11 01:56:47;;;;;;;0.17;0.17;;;;;;;5.62;100.00;90456.59;2115539;27;20094;-81
2024/02/11 01:57:51;;;;;;;0.20;0.13;;;;;;;5.58;100.00;90457.94;2106450;28;20019;-81
2024/02/11 01:58:52;;;;;;;0.10;0.10;;;;;;;5.36;100.00;90460.81;2111538;28;20046;-78
2024/02/11 01:59:53;;;;;;;0.43;0.10;;;;;;;5.53;100.00;90465.31;2113184;27;20035;-79
2024/02/11 02:00:55;;;;;;;0.10;0.10;;;;;;;5.44;100.00;90470.63;2099370;28;20317;-81
2024/02/11 02:01:56;;;;;;;0.10;0.10;;;;;;;5.52;100.00;90471.75;2100872;28;20028;-78
2024/02/11 02:02:59;;;;;;;0.10;0.10;;;;;;;5.52;100.00;90463.81;2051787;28;23580;-77
2024/02/11 02:04:00;;;;;;;0.10;0.10;;;;;;;5.42;100.00;90467.69;2038290;27;20443;-80
2024/02/11 02:05:01;;;;;;;0.20;0.20;;;;;;;5.39;100.00;90467.84;2047475;27;20027;-80
2024/02/11 02:06:03;;;;;;;0.10;0.10;;;;;;;5.23;100.00;90467.03;2030421;28;20085;-78
2024/02/11 02:07:04;;;;;;;0.10;0.10;;;;;;;5.28;100.00;90477.03;2039454;28;20039;-80
2024/02/11 02:08:08;;;;;;;0.10;0.10;;;;;;;5.26;100.00;90468.78;2054246;27;23442;-78
2024/02/11 02:09:11;;;;;;;0.20;0.20;;;;;;;5.32;100.00;90478.78;2035414;28;20028;-79
2024/02/11 02:10:13;;;;;;;2.33;0.20;;;;;;;5.35;100.00;90475.94;2046012;28;20757;-78
2024/02/11 02:11:15;;;;;;;0.10;0.10;;;;;;;5.33;100.00;90482.91;2057429;27;20789;-80
2024/02/11 02:12:17;;;;;;;0.10;0.10;;;;;;;5.27;100.00;90477.47;2051180;28;20091;-78
2024/02/11 02:13:18;;;;;;;0.10;0.10;;;;;;;5.33;100.00;90482.91;2066827;28;20057;-78
2024/02/11 02:14:19;;;;;;;0.10;0.10;;;;;;;5.43;100.00;90484.31;2077944;27;20104;-79
2024/02/11 02:15:22;;;;;;;0.10;0.10;;;;;;;5.42;100.00;90494.19;2059057;28;20031;-78
2024/02/11 02:16:23;;;;;;;0.10;0.10;;;;;;;5.46;100.00;90489.47;2066583;28;20309;-79
2024/02/11 02:17:24;;;;;;;0.10;0.10;;;;;;;5.30;100.00;90487.16;2083824;28;20026;-78
2024/02/11 02:18:26;;;;;;;0.10;0.10;;;;;;;5.37;100.00;90491.41;2095134;28;20023;-79
2024/02/11 02:19:27;;;;;;;0.10;0.10;;;;;;;5.45;100.00;90495.22;2107535;27;20061;-78
2024/02/11 02:20:29;;;;;;;0.10;0.10;;;;;;;5.43;100.00;90493.00;2104246;28;20031;-78
2024/02/11 02:21:30;;;;;;;0.40;0.10;;;;;;;5.29;100.00;90498.94;2114894;28;20023;-79
2024/02/11 02:22:34;;;;;;;0.10;0.10;;;;;;;5.26;100.00;90505.84;2114801;28;20042;-79
2024/02/11 02:23:35;;;;;;;0.10;0.10;;;;;;;5.33;100.00;90510.09;2115934;27;20070;-80
2024/02/11 02:26:28;;;;;;;;;;;;;;;4.36;100.00;90502.88;2138307;27;20119;-79
2024/02/11 02:27:29;;;;;;;0.20;0.20;;;;;;;4.35;100.00;90512.00;2124856;27;19918;-79
2024/02/11 02:28:30;;;;;;;0.10;0.10;;;;;;;4.45;100.00;90510.81;2116846;28;20428;-80
2024/02/11 02:29:31;;;;;;;0.10;0.10;;;;;;;4.36;100.00;90510.09;2114308;28;20479;-81
2024/02/11 02:30:33;;;;;;;0.17;0.17;;;;;;;4.08;100.00;90525.16;2123084;27;20038;-80
2024/02/11 02:31:37;;;;;;;0.10;0.10;;;;;;;4.13;100.00;90522.69;2129174;27;20019;-79
2024/02/11 02:32:38;;;;;;;0.10;0.10;;;;;;;4.43;100.00;90520.34;2113992;28;20127;-79
2024/02/11 02:35:36;;;;;;;0.10;0.10;;;;;;;4.05;100.00;90524.16;2127182;27;20026;-80
2024/02/11 02:36:37;;;;;;;0.43;0.10;;;;;;;4.00;100.00;90522.09;2123953;27;20185;-79
2024/02/11 02:37:38;;;;;;;0.15;0.15;;;;;;;4.02;100.00;90535.59;2118604;28;20369;-81
2024/02/11 02:38:39;;;;;;;3.03;0.20;;;;;;;4.04;100.00;90534.00;2115361;27;20023;-81
2024/02/11 02:39:40;;;;;;;0.13;0.10;;;;;;;4.06;100.00;90530.91;2118703;27;20027;-80
2024/02/11 02:40:41;;;;;;;1.15;0.10;;;;;;;4.20;100.00;90540.16;2105671;28;20427;-82
2024/02/11 02:41:42;;;;;;;0.10;0.10;;;;;;;4.18;100.00;90545.16;2111645;28;20023;-80
2024/02/11 02:42:43;;;;;;;0.10;0.10;;;;;;;4.10;100.00;90541.34;2115972;27;20027;-81
2024/02/11 02:43:46;;;;;;;0.10;0.10;;;;;;;4.04;100.00;90543.81;2123669;27;20429;-80
2024/02/11 02:44:47;;;;;;;0.17;0.10;;;;;;;3.94;100.00;90535.13;2128553;27;20323;-80
2024/02/11 02:45:48;;;;;;;0.10;0.10;;;;;;;3.82;100.00;90538.63;2131170;27;20808;-80
2024/02/11 02:46:49;;;;;;;1.85;0.10;;;;;;;3.84;100.00;90538.19;2132134;27;20019;-82
2024/02/11 02:47:50;;;;;;;0.10;0.10;;;;;;;3.85;100.00;90547.56;2120350;27;20023;-80
2024/02/11 02:48:51;;;;;;;0.10;0.10;;;;;;;3.92;100.00;90542.03;2125154;27;20018;-81
2024/02/11 02:49:52;;;;;;;0.40;0.13;;;;;;;3.91;100.00;90545.84;2117977;27;20521;-79
2024/02/11 02:50:54;;;;;;;0.10;0.10;;;;;;;3.93;100.00;90554.78;2114807;27;20129;-81
2024/02/11 02:52:01;;;;;;;0.20;0.20;;;;;;;3.80;100.00;90548.88;2079704;27;22468;-81
2024/02/11 02:53:02;;;;;;;0.20;0.20;;;;;;;3.75;100.00;90557.38;2040084;27;21027;-78
2024/02/11 02:54:03;;;;;;;1.75;0.20;;;;;;;3.78;100.00;90554.63;2053801;27;23097;-78
2024/02/11 02:55:07;;;;;;;0.15;0.15;;;;;;;3.81;100.00;90554.91;2057146;27;22659;-80
2024/02/11 02:56:08;;;;;;;0.10;0.10;;;;;;;3.74;100.00;90554.00;2037682;27;20031;-81
2024/02/11 02:57:13;;;;;;;0.20;0.20;;;;;;;3.84;100.00;90557.41;2071083;27;20664;-79
2024/02/11 02:58:14;;;;;;;0.10;0.10;;;;;;;3.89;100.00;90561.38;2066943;27;20038;-80
2024/02/11 02:59:16;;;;;;;0.20;0.20;;;;;;;3.83;100.00;90558.59;2059555;27;20036;-80
2024/02/11 03:00:22;;;;;;;0.22;0.10;;;;;;;3.90;100.00;90553.03;2080788;27;21672;-81
2024/02/11 03:01:27;;;;;;;0.20;0.17;;;;;;;3.93;100.00;90560.09;2080367;27;21594;-80
2024/02/11 03:02:28;;;;;;;0.10;0.10;;;;;;;3.89;100.00;90561.38;2097515;27;20113;-81
2024/02/11 03:03:29;;;;;;;0.20;0.20;;;;;;;3.95;100.00;90563.03;2105334;27;20054;-81
2024/02/11 03:04:30;;;;;;;0.10;0.10;;;;;;;3.96;100.00;90561.84;2101941;28;20039;-81
2024/02/11 03:05:34;;;;;;;2.30;0.20;;;;;;;4.00;100.00;90565.09;2105475;27;23238;-81
2024/02/11 03:06:36;;;;;;;0.10;0.10;;;;;;;3.84;100.00;90564.59;2101336;27;20064;-82
2024/02/11 03:07:40;;;;;;;1.85;0.20;;;;;;;3.93;100.00;90564.63;2117084;27;20028;-82
2024/02/11 03:08:41;;;;;;;0.10;0.10;;;;;;;3.95;100.00;90567.56;2128169;27;20421;-81
2024/02/11 03:09:42;;;;;;;0.20;0.20;;;;;;;4.02;100.00;90564.66;2115965;27;20048;-83
2024/02/11 03:10:43;;;;;;;0.10;0.10;;;;;;;4.07;100.00;90573.91;2114257;28;20509;-82
2024/02/11 03:11:46;;;;;;;0.10;0.10;;;;;;;4.10;100.00;90575.69;2132194;27;20034;-80
2024/02/11 03:12:47;;;;;;;0.10;0.10;;;;;;;4.08;100.00;90570.09;2130357;27;20083;-80
2024/02/11 03:13:48;;;;;;;0.20;0.20;;;;;;;4.07;100.00;90571.28;2135470;27;20668;-81
2024/02/11 03:14:50;;;;;;;0.20;0.20;;;;;;;3.90;100.00;90576.06;2131699;27;20108;-81
2024/02/11 03:15:51;;;;;;;0.65;0.20;;;;;;;3.91;100.00;90575.66;2128183;27;20011;-82
2024/02/11 03:16:52;;;;;;;0.20;0.20;;;;;;;4.08;100.00;90576.13;2134562;27;20042;-81
2024/02/11 03:17:53;;;;;;;0.15;0.15;;;;;;;4.14;100.00;90578.94;2135699;27;20030;-81
2024/02/11 03:18:54;;;;;;;0.10;0.10;;;;;;;3.93;100.00;90583.88;2135790;27;20037;-81
2024/02/11 03:19:55;;;;;;;0.10;0.10;;;;;;;4.07;100.00;90579.22;2130892;27;20091;-81
2024/02/11 03:20:56;;;;;;;0.20;0.20;;;;;;;4.09;100.00;90587.44;2116173;28;20089;-81
2024/02/11 03:21:57;;;;;;;0.10;0.10;;;;;;;3.90;100.00;90579.44;2115312;27;20027;-82
2024/02/11 03:22:58;;;;;;;0.10;0.10;;;;;;;4.10;100.00;90587.00;2121740;27;20621;-81
2024/02/11 03:23:59;;;;;;;0.80;0.10;;;;;;;4.11;100.00;90585.09;2130930;27;20503;-80
2024/02/11 03:24:59;;;;;;;0.10;0.10;;;;;;;4.15;100.00;90581.13;2124580;27;20083;-84
2024/02/11 03:26:00;;;;;;;0.20;0.20;;;;;;;4.11;100.00;90583.19;2113228;27;20354;-84
2024/02/11 03:27:03;;;;;;;0.20;0.20;;;;;;;4.01;100.00;90585.06;2113735;27;20038;-80
2024/02/11 03:28:04;;;;;;;0.20;0.20;;;;;;;4.11;100.00;90583.19;2126002;27;20029;-79
2024/02/11 03:29:06;;;;;;;0.20;0.20;;;;;;;4.16;100.00;90581.88;2120120;28;20023;-80
2024/02/11 03:30:08;;;;;;;0.20;0.20;;;;;;;4.09;100.00;90582.91;2125662;27;20023;-79
2024/02/11 03:31:09;;;;;;;0.20;0.20;;;;;;;4.23;100.00;90592.91;2131013;27;20030;-83
2024/02/11 03:32:10;;;;;;;0.20;0.20;;;;;;;4.30;100.00;90589.25;2120646;27;20030;-81
2024/02/11 03:33:11;;;;;;;0.20;0.20;;;;;;;4.12;100.00;90584.66;2122063;27;20065;-81
2024/02/11 03:34:12;;;;;;;0.43;0.43;;;;;;;4.25;100.00;90589.81;2115731;27;20399;-79
2024/02/11 03:35:13;;;;;;;0.17;0.17;;;;;;;4.02;100.00;90585.81;2113654;28;20016;-81
2024/02/11 03:36:16;;;;;;;0.20;0.20;;;;;;;4.18;100.00;90582.19;2113299;27;20369;-80
2024/02/11 03:37:17;;;;;;;0.20;0.20;;;;;;;4.07;100.00;90584.50;2116100;27;20089;-81
2024/02/11 03:38:18;;;;;;;0.10;0.10;;;;;;;3.80;100.00;90583.22;2120940;27;20405;-81
2024/02/11 03:39:20;;;;;;;0.20;0.20;;;;;;;3.91;100.00;90594.16;2106737;28;20456;-81
2024/02/11 03:40:21;;;;;;;0.30;0.30;;;;;;;3.89;100.00;90596.47;2106355;28;20114;-80
2024/02/11 03:41:25;;;;;;;0.20;0.20;;;;;;;4.02;100.00;90591.81;2106400;27;20020;-81
2024/02/11 03:42:26;;;;;;;0.20;0.20;;;;;;;3.95;100.00;90586.81;2124214;27;20358;-82
2024/02/11 03:43:27;;;;;;;0.20;0.20;;;;;;;3.88;100.00;90592.38;2128059;27;20348;-82
2024/02/11 03:44:28;;;;;;;0.20;0.20;;;;;;;3.88;100.00;90586.34;2125075;27;20022;-80
2024/02/11 03:45:29;;;;;;;0.20;0.20;;;;;;;3.89;100.00;90593.84;2127041;27;20046;-79
2024/02/11 03:46:32;;;;;;;0.20;0.20;;;;;;;3.82;100.00;90596.75;2127352;27;20059;-80
2024/02/11 03:47:33;;;;;;;0.22;0.22;;;;;;;3.77;100.00;90595.41;2119013;27;20014;-82
2024/02/11 03:48:34;;;;;;;0.20;0.20;;;;;;;3.75;100.00;90597.75;2118437;27;20058;-80
2024/02/11 03:49:35;;;;;;;0.52;0.25;;;;;;;3.78;100.00;90594.25;2114381;28;20027;-82
2024/02/11 03:50:36;;;;;;;0.20;0.20;;;;;;;3.79;100.00;90603.63;2127937;27;20121;-80
2024/02/11 03:51:37;;;;;;;0.20;0.20;;;;;;;3.79;100.00;90608.19;2126050;27;20027;-82
2024/02/11 03:52:38;;;;;;;0.20;0.20;;;;;;;3.81;100.00;90605.09;2123763;27;20776;-82
2024/02/11 03:53:39;;;;;;;0.30;0.30;;;;;;;3.82;100.00;90598.63;2124725;27;20054;-82
2024/02/11 03:54:39;;;;;;;0.35;0.30;;;;;;;3.90;100.00;90597.94;2126699;27;20019;-81
2024/02/11 03:55:41;;;;;;;0.32;0.20;;;;;;;3.86;100.00;90610.53;2124524;27;20106;-81
2024/02/11 03:56:42;;;;;;;0.20;0.20;;;;;;;3.90;100.00;90608.50;2108701;28;20031;-80
2024/02/11 03:57:43;;;;;;;0.20;0.20;;;;;;;3.70;100.00;90606.25;2106172;28;20343;-81
2024/02/11 03:58:44;;;;;;;0.30;0.30;;;;;;;3.78;100.00;90606.72;2118772;27;20031;-82
2024/02/11 03:59:45;;;;;;;0.20;0.20;;;;;;;3.76;100.00;90604.50;2114508;28;20076;-81
2024/02/11 04:00:47;;;;;;;0.30;0.30;;;;;;;3.76;100.00;90611.69;2113447;27;20050;-83
2024/02/11 04:01:48;;;;;;;0.20;0.20;;;;;;;3.87;100.00;90606.03;2115870;27;20499;-81
2024/02/11 04:02:52;;;;;;;0.30;0.30;;;;;;;4.01;100.00;90606.22;2107887;28;20024;-81
2024/02/11 04:03:53;;;;;;;0.20;0.20;;;;;;;3.91;100.00;90609.28;2109347;27;20072;-80
2024/02/11 04:04:54;;;;;;;0.20;0.20;;;;;;;3.87;100.00;90606.03;2108016;28;20105;-83
2024/02/11 04:05:55;;;;;;;0.22;0.22;;;;;;;3.89;100.00;90609.69;2117043;27;20027;-81
2024/02/11 04:06:56;;;;;;;0.30;0.30;;;;;;;3.93;100.00;90606.91;2122794;27;20027;-82
2024/02/11 04:07:57;;;;;;;0.25;0.25;;;;;;;3.75;100.00;90610.97;2114987;27;20093;-83
2024/02/11 04:09:00;;;;;;;0.82;0.30;;;;;;;3.84;100.00;90610.25;2099518;28;20561;-81
2024/02/11 04:10:17;;;;;;;0.20;0.20;;;;;;;3.95;100.00;90609.84;2104591;28;20445;-82
2024/02/11 04:11:21;;;;;;;0.30;0.30;;;;;;;3.92;100.00;90613.38;2122112;27;20031;-80
2024/02/11 04:12:22;;;;;;;0.25;0.25;;;;;;;3.85;100.00;90611.72;2128249;27;20018;-80
2024/02/11 04:13:25;;;;;;;0.20;0.20;;;;;;;3.75;100.00;90620.78;2125507;27;20688;-82
2024/02/11 04:14:26;;;;;;;0.30;0.30;;;;;;;3.65;100.00;90617.38;2108798;28;20027;-80
2024/02/11 04:15:27;;;;;;;2.05;0.30;;;;;;;3.82;100.00;90619.78;2116967;27;20031;-81
2024/02/11 04:16:28;;;;;;;0.30;0.30;;;;;;;4.05;100.00;90614.00;2112968;28;20072;-82
2024/02/11 04:17:29;;;;;;;0.38;0.30;;;;;;;4.31;100.00;90621.72;2116473;27;20526;-80
2024/02/11 04:18:32;;;;;;;0.30;0.30;;;;;;;3.97;100.00;90621.47;2116155;27;20032;-81
2024/02/11 04:19:34;;;;;;;0.35;0.35;;;;;;;3.85;100.00;90618.91;2098019;27;20166;-82
2024/02/11 04:20:36;;;;;;;0.22;0.22;;;;;;;3.87;100.00;90619.97;2110843;28;20483;-81
2024/02/11 04:21:40;;;;;;;0.30;0.30;;;;;;;3.91;100.00;90614.56;2116946;27;20030;-81
2024/02/11 04:22:45;;;;;;;0.40;0.40;;;;;;;3.90;100.00;90613.06;2116337;27;20361;-82
2024/02/11 04:23:48;;;;;;;0.40;0.40;;;;;;;3.82;100.00;90614.50;2112193;27;20039;-81
2024/02/11 04:24:49;;;;;;;0.40;0.40;;;;;;;3.71;100.00;90613.00;2118343;27;20031;-80
2024/02/11 04:25:52;;;;;;;0.40;0.32;;;;;;;4.01;100.00;90613.41;2126205;27;20050;-81
2024/02/11 04:26:53;;;;;;;0.30;0.30;;;;;;;3.98;100.00;90612.34;2122272;27;20041;-81
2024/02/11 04:27:54;;;;;;;0.60;0.40;;;;;;;3.84;100.00;90618.19;2122135;27;20041;-82
2024/02/11 04:28:55;;;;;;;0.40;0.40;;;;;;;3.75;100.00;90618.88;2123034;27;20031;-82
2024/02/11 04:29:57;;;;;;;0.52;0.52;;;;;;;3.79;100.00;90619.50;2117738;27;20049;-82
2024/02/11 04:30:58;;;;;;;0.40;0.40;;;;;;;3.87;100.00;90617.31;2116471;27;20031;-82
2024/02/11 04:32:00;;;;;;;0.88;0.40;;;;;;;3.82;100.00;90617.13;2114725;27;20657;-82
2024/02/11 04:33:03;;;;;;;0.35;0.35;;;;;;;3.72;100.00;90624.28;2117426;27;20027;-81
2024/02/11 04:34:08;;;;;;;0.52;0.52;;;;;;;3.78;100.00;90633.13;2116161;27;20104;-83
2024/02/11 04:35:13;;;;;;;0.50;0.50;;;;;;;3.82;100.00;90622.41;2126487;27;20025;-80
2024/02/11 04:36:16;;;;;;;0.50;0.50;;;;;;;3.75;100.00;90623.44;2125204;27;20057;-79
2024/02/11 04:37:18;;;;;;;0.40;0.40;;;;;;;3.78;100.00;90622.56;2121948;27;20018;-81
2024/02/11 04:38:19;;;;;;;0.52;0.52;;;;;;;3.75;100.00;90624.16;2105653;28;20028;-83
2024/02/11 04:39:21;;;;;;;0.40;0.40;;;;;;;3.71;100.00;90622.81;2104357;28;20024;-81
2024/02/11 04:40:26;;;;;;;0.55;0.55;;;;;;;3.74;100.00;90627.25;2107643;28;20015;-80
2024/02/11 04:41:27;;;;;;;0.50;0.50;;;;;;;3.71;100.00;90625.47;2102729;27;20042;-81
2024/02/11 04:42:30;;;;;;;0.50;0.50;;;;;;;3.78;100.00;90627.84;2116571;27;20024;-82
2024/02/11 04:43:34;;;;;;;1.50;0.60;;;;;;;4.18;100.00;90627.84;2130990;27;20482;-81
2024/02/11 04:44:37;;;;;;;0.60;0.60;;;;;;;4.00;100.00;90633.09;2117757;27;20113;-82
2024/02/11 04:45:38;;;;;;;0.68;0.60;;;;;;;3.88;100.00;90634.66;2116511;27;20433;-82
2024/02/11 04:46:41;;;;;;;0.52;0.50;;;;;;;3.80;100.00;90630.78;2128834;27;20106;-79
2024/02/11 04:47:58;;;;;;;0.60;0.60;;;;;;;3.81;100.00;90631.53;2111204;28;20031;-80
2024/02/11 04:48:59;;;;;;;0.65;0.60;;;;;;;3.89;100.00;90635.38;2109494;27;20103;-82
2024/02/11 04:50:00;;;;;;;0.70;0.70;;;;;;;3.91;100.00;90633.06;2107355;28;20089;-81
2024/02/11 04:51:02;;;;;;;0.80;0.80;;;;;;;3.92;100.00;90637.91;2104574;28;20028;-81
2024/02/11 04:52:07;;;;;;;1.85;0.60;;;;;;;3.86;100.00;90631.69;2112732;28;20139;-81
2024/02/11 04:53:09;;;;;;;0.73;0.65;;;;;;;3.76;100.00;90636.19;2109367;28;20031;-81
2024/02/11 04:54:10;;;;;;;1.23;0.70;;;;;;;3.99;100.00;90636.88;2114426;27;20431;-81
2024/02/11 04:55:11;;;;;;;0.63;0.63;;;;;;;3.98;100.00;90636.16;2116477;27;20062;-82